Chicago, IL

3:33 PM CST on February 14, 2016 (GMT -0600)
West Loop - Old St. Pats | | Change Station
CLOSE
Current Station
Personal Weather Station
Location: Chicago, IL
Elevation: 548 ft
Nearby Weather Stations

Elev 548 ft 41.88 °N, 87.64 °W | Updated 11 seconds ago

Snow
Snow
18.5 °F
Feels Like 18 °F
N
3.0
Wind Variable Wind from ESE
Gusts 5.0 mph

Today
High -- | Low -- °F
--% Chance of Precip.
Yesterday
High -- | Low -- °F
Precip. -- in
Pressure 30.13 in
Visibility 0.8 miles
Clouds Scattered Clouds 1500 ft
Overcast 2000 ft
Windchill 18 °F
Dew Point 15 °F
Humidity 86%
Rainfall 0.00 in
Snow Depth Not available.
6:48 AM 5:21 PM
Waxing Crescent, 45% visible
SPECI KMDW 142125Z 12014G20KT 3/4SM R31C/4000VP6000FT -SN SCT015 OVC020 M08/M12 A3013 RMK AO2 P0000 T10781117 $
Pressure 30.13 in
Visibility 0.8 miles
Clouds Scattered Clouds 1500 ft
Overcast 2000 ft
Windchill 18 °F
Dew Point 15 °F
Humidity 86%
Rainfall 0.00 in
Snow Depth Not available.
6:48 AM 5:21 PM
Waxing Crescent, 45% visible
SPECI KMDW 142125Z 12014G20KT 3/4SM R31C/4000VP6000FT -SN SCT015 OVC020 M08/M12 A3013 RMK AO2 P0000 T10781117 $

10-Day Weather Forecast

Almanac

Astronomy

Feb. 14, 2016 Rise Set
Actual Time
Civil Twilight
Nautical Twilight
Astronomical Twilight
Moon
Length of Visible Light
Length of Day
Tomorrow will be .
, % of the Moon is Illuminated

Today's Extremes

State Highs State Lows

Community

WunderPhotos

Upload Photos

1,892,890 photos uploaded!

WunderBlog® & News

Nearby

Air Quality

  Air Quality AQ Index Pollutant
Not available.

Snow Depth

Station Depth Elevation

Earthquake Activity

City Distance Mag. Time & Date
Minimum magnitude displayed is 2.5.

Coastal Water Temperatures

Place Temperature

Stations

Nearby Weather Stations

Station Location Temp. Windchill Dew Point Humidity Wind Precip. Elev Updated Type
                   

Watches & Warnings

There are currently no watches in effect.